Time;durP1;ratioP1;P1;durP2;ratioP2;P2;SDS_P1;SDS_P2;PMS_P1;PMS_P2;Temp;Humidity;BMP_temperature;BMP_pressure;BME280_temperature;BME280_humidity;BME280_pressure;Samples;Min_cycle;Max_cycle;Signal;HPM_P1;HPM_P2
2021/01/30 00:02:05;;;;;;;0.40;0.40;;;7.40;99.90;;;;;;5095205;28;20556;-28
2021/01/30 00:04:32;;;;;;;0.40;0.40;;;7.40;99.90;;;;;;5094710;28;20450;-28
2021/01/30 00:06:59;;;;;;;0.40;0.40;;;7.50;99.90;;;;;;5094999;28;20454;-26
2021/01/30 00:09:27;;;;;;;0.40;0.40;;;7.40;99.90;;;;;;5095630;28;20436;-27
2021/01/30 00:11:56;;;;;;;0.40;0.40;;;7.50;99.90;;;;;;5095754;28;20767;-27
2021/01/30 00:14:24;;;;;;;0.40;0.40;;;7.50;99.90;;;;;;5095663;28;20475;-26
2021/01/30 00:16:51;;;;;;;0.40;0.40;;;7.50;99.90;;;;;;5096050;28;21045;-28
2021/01/30 00:19:19;;;;;;;0.40;0.40;;;7.50;99.90;;;;;;5077653;28;20490;-26
2021/01/30 00:21:51;;;;;;;0.40;0.40;;;7.40;99.90;;;;;;5093893;28;20460;-26
2021/01/30 00:24:18;;;;;;;0.40;0.40;;;7.30;99.90;;;;;;5077537;28;20536;-26
2021/01/30 00:26:49;;;;;;;0.40;0.40;;;7.20;99.90;;;;;;5095157;28;20447;-26
2021/01/30 00:29:16;;;;;;;0.40;0.40;;;7.20;99.90;;;;;;5095738;28;20510;-27
2021/01/30 00:31:43;;;;;;;0.40;0.40;;;7.10;99.90;;;;;;5094175;28;20431;-26
2021/01/30 00:34:10;;;;;;;0.40;0.40;;;7.00;99.90;;;;;;5095343;28;20443;-27
2021/01/30 00:36:38;;;;;;;0.40;0.40;;;7.10;99.90;;;;;;5095655;28;20697;-27
2021/01/30 00:39:05;;;;;;;0.40;0.40;;;7.10;99.90;;;;;;5094586;28;20455;-26
2021/01/30 00:41:33;;;;;;;0.40;0.40;;;7.10;99.90;;;;;;5094718;28;20455;-28
2021/01/30 00:44:01;;;;;;;0.40;0.40;;;7.10;99.90;;;;;;5092460;28;20443;-27
2021/01/30 00:46:28;;;;;;;0.40;0.40;;;7.20;99.90;;;;;;5095452;28;20463;-26
2021/01/30 00:48:55;;;;;;;0.40;0.40;;;7.30;99.90;;;;;;5094347;28;21033;-30
2021/01/30 00:51:22;;;;;;;0.40;0.40;;;7.40;99.90;;;;;;5077001;28;20550;-27
2021/01/30 00:53:55;;;;;;;0.40;0.40;;;7.40;99.90;;;;;;5076025;28;20439;-29
2021/01/30 00:56:24;;;;;;;0.40;0.40;;;7.40;99.90;;;;;;5094727;28;20440;-26
2021/01/30 00:58:52;;;;;;;0.40;0.40;;;7.30;99.90;;;;;;5075789;28;20460;-27
2021/01/30 01:01:19;;;;;;;0.50;0.50;;;7.20;99.90;;;;;;5075650;28;20471;-28
2021/01/30 01:03:45;;;;;;;0.40;0.40;;;7.20;99.90;;;;;;5093063;28;20535;-27
2021/01/30 01:06:12;;;;;;;0.40;0.40;;;7.20;99.90;;;;;;5092198;28;20828;-29
2021/01/30 01:08:39;;;;;;;0.40;0.40;;;7.20;99.90;;;;;;5075160;28;20451;-27
2021/01/30 01:11:07;;;;;;;0.40;0.40;;;7.20;99.90;;;;;;5092849;28;21041;-26
2021/01/30 01:13:34;;;;;;;0.50;0.50;;;7.20;99.90;;;;;;5092976;28;20448;-28
2021/01/30 01:16:00;;;;;;;0.40;0.40;;;7.20;99.90;;;;;;5092800;28;20436;-26
2021/01/30 01:18:27;;;;;;;0.40;0.40;;;7.20;99.90;;;;;;5093306;28;20450;-27
2021/01/30 01:20:54;;;;;;;0.40;0.40;;;7.30;99.90;;;;;;5091883;28;20464;-26
2021/01/30 01:23:21;;;;;;;0.40;0.40;;;7.30;99.90;;;;;;5093238;28;20477;-26
2021/01/30 01:25:47;;;;;;;0.40;0.40;;;7.40;99.90;;;;;;5092737;28;21048;-27
2021/01/30 01:28:15;;;;;;;0.40;0.40;;;7.40;99.90;;;;;;5075100;28;20478;-27
2021/01/30 01:30:42;;;;;;;0.40;0.40;;;7.40;99.90;;;;;;5091840;28;20949;-27
2021/01/30 01:33:09;;;;;;;0.40;0.40;;;7.50;99.90;;;;;;5092468;28;20489;-27
2021/01/30 01:35:35;;;;;;;0.50;0.50;;;7.40;99.90;;;;;;5092382;28;20539;-27
2021/01/30 01:38:05;;;;;;;0.40;0.40;;;7.40;99.90;;;;;;5092525;28;20466;-27
2021/01/30 01:40:34;;;;;;;0.40;0.40;;;7.40;99.90;;;;;;5091755;28;20473;-27
2021/01/30 01:43:04;;;;;;;0.40;0.40;;;7.40;99.90;;;;;;5093138;28;20463;-27
2021/01/30 01:45:32;;;;;;;0.40;0.40;;;7.30;99.90;;;;;;5092131;28;20481;-27
2021/01/30 01:48:03;;;;;;;0.40;0.40;;;7.30;99.90;;;;;;5091814;28;20468;-27
2021/01/30 01:50:37;;;;;;;0.40;0.40;;;7.30;99.90;;;;;;5091818;28;20424;-27
2021/01/30 01:53:09;;;;;;;0.40;0.40;;;7.40;99.90;;;;;;5092627;28;20482;-27
2021/01/30 01:55:41;;;;;;;0.40;0.40;;;7.50;99.90;;;;;;5073151;28;20440;-28
2021/01/30 01:58:12;;;;;;;0.40;0.40;;;7.50;99.90;;;;;;5091893;28;20443;-27
2021/01/30 02:00:40;;;;;;;0.40;0.40;;;7.50;99.90;;;;;;5092054;28;20495;-27
2021/01/30 02:03:07;;;;;;;0.40;0.40;;;7.60;99.90;;;;;;5092170;28;20472;-27
2021/01/30 02:05:37;;;;;;;0.40;0.40;;;7.60;99.90;;;;;;5073873;28;20535;-27
2021/01/30 02:08:07;;;;;;;0.40;0.40;;;7.60;99.90;;;;;;5091890;28;20440;-28
2021/01/30 02:10:38;;;;;;;0.50;0.50;;;7.70;99.90;;;;;;5091382;28;20743;-26
2021/01/30 02:13:11;;;;;;;0.40;0.40;;;7.70;99.90;;;;;;5091823;28;20473;-27
2021/01/30 02:15:42;;;;;;;0.40;0.40;;;7.70;99.90;;;;;;5072847;28;20841;-26
2021/01/30 02:18:21;;;;;;;0.40;0.40;;;7.70;99.90;;;;;;5092262;28;20444;-27
2021/01/30 02:21:30;;;;;;;0.40;0.40;;;7.60;99.90;;;;;;5091075;28;20544;-27
2021/01/30 02:24:29;;;;;;;0.40;0.40;;;7.60;99.90;;;;;;5091394;28;20435;-27
2021/01/30 02:27:33;;;;;;;0.40;0.40;;;7.60;99.90;;;;;;5091376;28;20464;-27
2021/01/30 02:30:29;;;;;;;0.40;0.40;;;7.60;99.90;;;;;;5091076;28;20562;-26
2021/01/30 02:33:29;;;;;;;0.40;0.40;;;7.60;99.90;;;;;;5090931;28;20483;-27
2021/01/30 02:36:09;;;;;;;0.40;0.40;;;7.60;99.90;;;;;;5073185;28;21021;-27
2021/01/30 02:38:40;;;;;;;0.40;0.40;;;7.50;99.90;;;;;;5091732;28;21001;-27
2021/01/30 02:41:19;;;;;;;0.40;0.40;;;7.60;99.90;;;;;;5091239;28;20424;-26
2021/01/30 02:43:50;;;;;;;0.40;0.40;;;7.70;99.90;;;;;;5090970;28;20446;-27
2021/01/30 02:46:24;;;;;;;0.40;0.40;;;7.70;99.90;;;;;;5071836;28;20431;-27
2021/01/30 02:48:57;;;;;;;0.40;0.40;;;7.70;99.90;;;;;;5090821;28;20494;-26
2021/01/30 02:51:30;;;;;;;0.40;0.40;;;7.70;99.90;;;;;;5072936;28;20508;-27
2021/01/30 02:54:00;;;;;;;0.40;0.40;;;7.60;99.90;;;;;;5090748;28;20443;-27
2021/01/30 02:56:28;;;;;;;0.40;0.40;;;7.60;99.90;;;;;;5090283;28;20428;-27
2021/01/30 02:59:00;;;;;;;0.40;0.40;;;7.50;99.90;;;;;;5090747;28;20736;-27
2021/01/30 03:01:27;;;;;;;0.50;0.50;;;7.60;99.90;;;;;;5090535;28;20534;-27
2021/01/30 03:03:54;;;;;;;2.53;2.33;;;7.60;99.90;;;;;;5090677;28;20810;-27
2021/01/30 03:06:29;;;;;;;0.40;0.40;;;7.70;99.90;;;;;;5091190;28;20455;-27
2021/01/30 03:09:03;;;;;;;0.40;0.40;;;7.60;99.90;;;;;;5090930;28;20875;-27
2021/01/30 03:11:35;;;;;;;0.40;0.40;;;7.60;99.90;;;;;;5090153;28;20428;-27
2021/01/30 03:14:08;;;;;;;0.93;0.93;;;7.60;99.90;;;;;;5091150;28;20787;-26
2021/01/30 03:16:38;;;;;;;0.40;0.40;;;7.60;99.90;;;;;;5091490;28;20432;-26
2021/01/30 03:19:11;;;;;;;0.40;0.40;;;7.60;99.90;;;;;;5090850;28;20466;-26
2021/01/30 03:21:41;;;;;;;0.40;0.40;;;7.60;99.90;;;;;;5090138;28;20486;-27
2021/01/30 03:24:08;;;;;;;0.40;0.40;;;7.60;99.90;;;;;;5090722;28;20440;-26
2021/01/30 03:26:42;;;;;;;0.40;0.40;;;7.50;99.90;;;;;;5090836;28;20436;-26
2021/01/30 03:29:13;;;;;;;0.40;0.40;;;7.40;99.90;;;;;;5089600;28;20436;-26
2021/01/30 03:31:40;;;;;;;0.40;0.40;;;7.40;99.90;;;;;;5090348;28;20428;-27
2021/01/30 03:34:07;;;;;;;0.40;0.40;;;7.50;99.90;;;;;;5090630;28;20432;-27
2021/01/30 03:36:34;;;;;;;0.40;0.40;;;7.50;99.90;;;;;;5090677;28;20860;-26
2021/01/30 03:39:03;;;;;;;0.40;0.40;;;7.50;99.90;;;;;;5090221;28;21246;-27
2021/01/30 03:41:30;;;;;;;0.40;0.40;;;7.50;99.90;;;;;;5089452;28;20562;-26
2021/01/30 03:43:57;;;;;;;0.40;0.40;;;7.60;99.90;;;;;;5088098;28;20484;-27
2021/01/30 03:46:24;;;;;;;0.40;0.40;;;7.50;99.90;;;;;;5090051;28;20531;-27
2021/01/30 03:48:52;;;;;;;0.50;0.50;;;7.60;99.90;;;;;;5090641;28;20531;-27
2021/01/30 03:51:19;;;;;;;0.50;0.50;;;7.50;99.90;;;;;;5090514;28;20487;-27
2021/01/30 03:53:46;;;;;;;0.40;0.40;;;7.50;99.90;;;;;;5090378;28;20541;-29
2021/01/30 03:56:13;;;;;;;0.40;0.40;;;7.60;99.90;;;;;;5090660;28;20903;-30
2021/01/30 03:58:41;;;;;;;0.40;0.40;;;7.70;99.90;;;;;;5090704;28;20779;-28
2021/01/30 04:01:08;;;;;;;0.50;0.50;;;7.60;99.90;;;;;;5090155;28;20475;-28
2021/01/30 04:03:35;;;;;;;0.40;0.40;;;7.70;99.90;;;;;;5089979;28;20439;-28
2021/01/30 04:06:01;;;;;;;0.40;0.40;;;7.80;99.90;;;;;;5089206;28;20456;-27
2021/01/30 04:08:28;;;;;;;0.40;0.40;;;7.80;99.90;;;;;;5090383;28;20535;-28
2021/01/30 04:10:55;;;;;;;0.40;0.40;;;7.80;99.90;;;;;;5089386;28;20440;-27
2021/01/30 04:13:23;;;;;;;0.40;0.40;;;7.80;99.90;;;;;;5089547;28;21004;-27
2021/01/30 04:15:50;;;;;;;0.40;0.40;;;7.80;99.90;;;;;;5089641;28;20478;-27
2021/01/30 04:18:17;;;;;;;0.40;0.40;;;7.80;99.90;;;;;;5089375;28;20469;-27
2021/01/30 04:20:43;;;;;;;0.40;0.40;;;7.70;99.90;;;;;;5088936;28;20470;-27
2021/01/30 04:23:11;;;;;;;0.40;0.40;;;7.70;99.90;;;;;;5087798;28;20539;-27
2021/01/30 04:25:38;;;;;;;0.40;0.40;;;7.60;99.90;;;;;;5089795;28;20523;-27
2021/01/30 04:28:05;;;;;;;0.50;0.50;;;7.60;99.90;;;;;;5089339;28;20787;-27
2021/01/30 04:30:33;;;;;;;0.40;0.40;;;7.50;99.90;;;;;;5088570;28;21052;-27
2021/01/30 04:33:01;;;;;;;0.40;0.40;;;7.50;99.90;;;;;;5089481;28;20539;-28
2021/01/30 04:35:30;;;;;;;0.40;0.40;;;7.50;99.90;;;;;;5069984;28;20497;-27
2021/01/30 04:37:57;;;;;;;0.40;0.40;;;7.50;99.90;;;;;;5088813;28;20428;-29
2021/01/30 04:40:30;;;;;;;0.40;0.40;;;7.50;99.90;;;;;;5092117;28;20908;-27
2021/01/30 04:43:03;;;;;;;0.40;0.40;;;7.50;99.90;;;;;;5093563;28;20436;-27
2021/01/30 04:45:39;;;;;;;0.40;0.40;;;7.50;99.90;;;;;;5091678;28;20442;-27
2021/01/30 04:48:18;;;;;;;0.40;0.40;;;7.60;99.90;;;;;;5092300;28;20756;-30
2021/01/30 04:50:53;;;;;;;0.50;0.50;;;7.50;99.90;;;;;;5093175;28;20428;-29
2021/01/30 04:53:38;;;;;;;0.50;0.50;;;7.60;99.90;;;;;;5093371;28;20866;-29
2021/01/30 04:56:18;;;;;;;0.40;0.40;;;7.60;99.90;;;;;;5075321;28;20443;-28
2021/01/30 04:58:54;;;;;;;0.40;0.40;;;7.60;99.90;;;;;;5091834;28;20749;-30
2021/01/30 05:01:29;;;;;;;0.40;0.40;;;7.70;99.90;;;;;;5091193;28;20462;-28
2021/01/30 05:04:05;;;;;;;0.40;0.40;;;7.70;99.90;;;;;;5074424;28;20431;-27
2021/01/30 05:06:44;;;;;;;0.40;0.40;;;7.60;99.90;;;;;;5092041;28;20494;-29
2021/01/30 05:09:16;;;;;;;0.40;0.40;;;7.60;99.90;;;;;;5091220;28;20465;-32
2021/01/30 05:11:51;;;;;;;0.40;0.40;;;7.60;99.90;;;;;;5092109;28;20455;-31
2021/01/30 05:14:25;;;;;;;0.40;0.40;;;7.60;99.90;;;;;;5092545;28;20466;-29
2021/01/30 05:17:00;;;;;;;0.40;0.40;;;7.60;99.90;;;;;;5091521;28;20442;-27
2021/01/30 05:19:32;;;;;;;0.40;0.40;;;7.60;99.90;;;;;;5091640;28;20495;-27
2021/01/30 05:22:01;;;;;;;0.40;0.40;;;7.60;99.90;;;;;;5092908;28;20925;-27
2021/01/30 05:24:29;;;;;;;0.50;0.50;;;7.60;99.90;;;;;;5092796;28;20534;-27
2021/01/30 05:27:16;;;;;;;0.50;0.50;;;7.60;99.90;;;;;;5091863;28;21048;-27
2021/01/30 05:29:51;;;;;;;0.40;0.40;;;7.70;99.90;;;;;;5092056;28;20483;-27
2021/01/30 05:32:27;;;;;;;0.50;0.50;;;7.70;99.90;;;;;;5091772;28;21067;-27
2021/01/30 05:34:58;;;;;;;0.43;0.43;;;7.70;99.90;;;;;;5091664;28;20983;-27
2021/01/30 05:37:31;;;;;;;0.40;0.40;;;7.70;99.90;;;;;;5091183;28;20914;-26
2021/01/30 05:40:17;;;;;;;0.40;0.40;;;7.60;99.90;;;;;;5091199;28;20499;-27
2021/01/30 05:42:55;;;;;;;0.50;0.50;;;7.60;99.90;;;;;;5092523;28;20862;-27
2021/01/30 05:45:34;;;;;;;0.50;0.50;;;7.60;99.90;;;;;;5092496;28;20435;-27
2021/01/30 05:48:02;;;;;;;0.40;0.40;;;7.60;99.90;;;;;;5092578;28;20442;-27
2021/01/30 05:50:36;;;;;;;0.50;0.50;;;7.60;99.90;;;;;;5091607;28;20444;-27
2021/01/30 05:53:04;;;;;;;0.40;0.40;;;7.50;99.90;;;;;;5090868;28;20435;-27
2021/01/30 05:55:34;;;;;;;0.40;0.40;;;7.60;99.90;;;;;;5090333;28;20440;-27
2021/01/30 05:58:06;;;;;;;0.50;0.50;;;7.60;99.90;;;;;;5091077;28;20436;-27
2021/01/30 06:00:33;;;;;;;0.40;0.40;;;7.60;99.90;;;;;;5092019;28;20966;-27
2021/01/30 06:03:05;;;;;;;0.40;0.40;;;7.60;99.90;;;;;;5073521;28;20754;-28
2021/01/30 06:05:33;;;;;;;0.50;0.50;;;7.60;99.90;;;;;;5090834;28;20463;-26
2021/01/30 06:08:23;;;;;;;0.50;0.50;;;7.60;99.90;;;;;;5089810;28;20439;-26
2021/01/30 06:10:53;;;;;;;0.50;0.50;;;7.60;99.90;;;;;;5089603;28;20428;-26
2021/01/30 06:13:22;;;;;;;0.50;0.50;;;7.60;99.90;;;;;;5090387;28;20443;-26
2021/01/30 06:15:52;;;;;;;0.40;0.40;;;7.70;99.90;;;;;;5091079;28;20436;-27
2021/01/30 06:18:39;;;;;;;0.40;0.40;;;7.60;99.90;;;;;;5090759;28;20434;-27
2021/01/30 06:21:10;;;;;;;0.40;0.40;;;7.50;99.90;;;;;;5093531;28;20907;-27
2021/01/30 06:23:39;;;;;;;0.50;0.50;;;7.60;99.90;;;;;;5098389;28;21032;-27
2021/01/30 06:26:16;;;;;;;0.50;0.50;;;7.70;99.90;;;;;;5098214;28;20436;-27
2021/01/30 06:28:46;;;;;;;0.47;0.47;;;7.70;99.90;;;;;;5097613;28;20443;-26
2021/01/30 06:31:24;;;;;;;0.40;0.40;;;7.80;99.90;;;;;;5098969;28;20763;-27
2021/01/30 06:33:56;;;;;;;0.40;0.40;;;7.80;99.90;;;;;;5088439;28;21034;-26
2021/01/30 06:36:25;;;;;;;0.50;0.50;;;7.90;99.90;;;;;;5098965;28;20881;-27
2021/01/30 06:39:00;;;;;;;0.40;0.40;;;7.90;99.90;;;;;;5098065;28;20935;-27
2021/01/30 06:41:29;;;;;;;0.50;0.50;;;7.90;99.90;;;;;;5097487;28;20423;-27
2021/01/30 06:44:13;;;;;;;0.40;0.40;;;7.90;99.90;;;;;;5099259;28;20479;-27
2021/01/30 06:47:10;;;;;;;0.43;0.43;;;7.80;99.90;;;;;;5088289;28;20436;-27
2021/01/30 06:49:40;;;;;;;1.40;1.40;;;7.90;99.90;;;;;;5098920;28;20432;-27
2021/01/30 06:52:09;;;;;;;0.40;0.40;;;7.90;99.90;;;;;;5098332;28;20558;-27
2021/01/30 06:54:36;;;;;;;0.50;0.50;;;7.90;99.90;;;;;;5098181;28;21225;-28
2021/01/30 06:57:07;;;;;;;0.40;0.40;;;7.90;99.90;;;;;;5099982;28;20439;-26
2021/01/30 06:59:36;;;;;;;0.50;0.50;;;7.90;99.90;;;;;;5097355;28;20957;-27
2021/01/30 07:02:14;;;;;;;3.33;3.13;;;7.90;99.90;;;;;;5097406;28;20436;-27
2021/01/30 07:05:06;;;;;;;0.43;0.43;;;7.90;99.90;;;;;;5097307;28;20442;-27
2021/01/30 07:07:47;;;;;;;0.40;0.40;;;7.80;99.90;;;;;;5097009;28;20908;-27
2021/01/30 07:10:25;;;;;;;0.90;0.90;;;7.80;99.90;;;;;;5107904;28;20442;-26
2021/01/30 07:13:03;;;;;;;0.40;0.40;;;7.80;99.90;;;;;;5107307;28;20427;-27
2021/01/30 07:15:32;;;;;;;0.40;0.40;;;7.80;99.90;;;;;;5107704;28;20475;-27
2021/01/30 07:18:19;;;;;;;0.40;0.40;;;7.80;99.90;;;;;;5109092;28;20548;-27
2021/01/30 07:21:10;;;;;;;1.67;1.57;;;7.70;99.90;;;;;;5107723;28;20927;-27
2021/01/30 07:23:43;;;;;;;2.43;2.30;;;7.70;99.90;;;;;;5110555;28;20474;-27
2021/01/30 07:26:16;;;;;;;0.50;0.50;;;7.80;99.90;;;;;;5109626;28;20439;-27
2021/01/30 07:28:47;;;;;;;0.40;0.40;;;7.80;99.90;;;;;;5108453;28;20434;-27
2021/01/30 07:31:23;;;;;;;0.40;0.40;;;7.80;99.90;;;;;;5108244;28;20471;-26
2021/01/30 07:33:52;;;;;;;0.40;0.40;;;7.70;99.90;;;;;;5108906;28;20438;-27
2021/01/30 07:36:24;;;;;;;0.40;0.40;;;7.60;99.90;;;;;;5108738;28;20454;-27
2021/01/30 07:38:58;;;;;;;0.40;0.40;;;7.60;99.90;;;;;;5109563;28;20423;-27
2021/01/30 07:41:48;;;;;;;0.40;0.40;;;7.50;99.90;;;;;;5108838;28;20471;-26
2021/01/30 07:44:20;;;;;;;0.50;0.50;;;7.60;99.90;;;;;;5107732;28;20435;-27
2021/01/30 07:46:53;;;;;;;0.40;0.40;;;7.70;99.90;;;;;;5105640;28;20451;-26
2021/01/30 07:49:25;;;;;;;0.40;0.40;;;7.60;99.90;;;;;;5101285;28;20439;-29
2021/01/30 07:51:58;;;;;;;0.40;0.40;;;7.60;99.90;;;;;;5101388;28;20769;-27
2021/01/30 07:54:25;;;;;;;0.50;0.50;;;7.70;99.90;;;;;;5083799;28;20424;-27
2021/01/30 07:57:12;;;;;;;0.43;0.43;;;7.80;99.90;;;;;;5083081;28;20448;-27
2021/01/30 07:59:47;;;;;;;0.40;0.40;;;7.80;99.90;;;;;;5078791;28;21028;-27
2021/01/30 08:02:53;;;;;;;0.40;0.40;;;7.90;99.90;;;;;;5079357;28;20443;-27
2021/01/30 08:05:30;;;;;;;0.40;0.40;;;7.90;99.90;;;;;;5080340;28;20443;-27
2021/01/30 08:08:09;;;;;;;0.40;0.40;;;7.90;99.90;;;;;;5077728;28;20486;-29
2021/01/30 08:10:43;;;;;;;0.40;0.40;;;8.00;99.90;;;;;;5075994;28;20450;-28
2021/01/30 08:13:23;;;;;;;1.07;1.07;;;7.90;99.90;;;;;;5077951;28;20687;-27
2021/01/30 08:16:00;;;;;;;0.40;0.40;;;7.90;99.90;;;;;;5077696;28;20604;-27
2021/01/30 08:18:36;;;;;;;0.40;0.40;;;8.00;99.90;;;;;;5083369;28;20510;-26
2021/01/30 08:21:11;;;;;;;0.40;0.40;;;8.00;99.90;;;;;;5083671;28;20597;-27
2021/01/30 08:23:48;;;;;;;0.40;0.40;;;7.90;99.90;;;;;;5084800;28;20479;-26
2021/01/30 08:26:22;;;;;;;0.40;0.40;;;7.90;99.90;;;;;;5084316;28;20596;-27
2021/01/30 08:29:08;;;;;;;0.40;0.40;;;8.00;99.90;;;;;;5083509;28;20491;-28
2021/01/30 08:31:41;;;;;;;0.40;0.40;;;8.10;99.90;;;;;;5082042;28;20559;-26
2021/01/30 08:34:33;;;;;;;0.40;0.40;;;8.10;99.90;;;;;;5085062;28;20436;-29
2021/01/30 08:37:01;;;;;;;0.40;0.40;;;8.20;99.90;;;;;;5082118;28;20455;-27
2021/01/30 08:39:31;;;;;;;0.40;0.40;;;8.20;99.90;;;;;;5080068;28;20529;-27
2021/01/30 08:42:02;;;;;;;0.40;0.40;;;8.30;99.90;;;;;;5080841;28;20896;-29
2021/01/30 08:44:48;;;;;;;0.40;0.40;;;8.30;99.90;;;;;;5082047;28;20873;-29
2021/01/30 08:47:23;;;;;;;0.40;0.40;;;8.50;99.90;;;;;;5081245;28;20475;-27
2021/01/30 08:50:11;;;;;;;0.40;0.40;;;8.60;99.90;;;;;;5080492;28;20476;-26
2021/01/30 08:52:50;;;;;;;0.43;0.43;;;8.60;99.90;;;;;;5080770;28;20558;-27
2021/01/30 08:55:53;;;;;;;0.40;0.40;;;8.60;99.90;;;;;;5063392;28;20456;-28
2021/01/30 08:58:46;;;;;;;0.40;0.40;;;8.70;99.90;;;;;;5064665;28;20656;-27
2021/01/30 09:01:42;;;;;;;0.40;0.40;;;8.80;99.90;;;;;;5081888;28;21205;-29
2021/01/30 09:04:47;;;;;;;0.40;0.40;;;8.90;99.90;;;;;;5080775;28;20432;-27
2021/01/30 09:07:51;;;;;;;0.40;0.40;;;8.90;99.90;;;;;;5082094;28;20515;-30
2021/01/30 09:10:38;;;;;;;0.40;0.40;;;8.90;99.90;;;;;;5081912;28;20464;-27
2021/01/30 09:13:10;;;;;;;0.40;0.40;;;9.00;99.90;;;;;;5080448;28;20976;-31
2021/01/30 09:16:02;;;;;;;0.40;0.40;;;8.90;99.90;;;;;;5081577;28;20577;-27
2021/01/30 09:18:56;;;;;;;0.40;0.40;;;8.70;99.90;;;;;;5083717;28;20443;-28
2021/01/30 09:21:36;;;;;;;0.83;0.83;;;8.70;99.90;;;;;;5076018;28;20522;-27
2021/01/30 09:24:28;;;;;;;0.40;0.40;;;8.80;99.90;;;;;;5080952;28;20431;-28
2021/01/30 09:27:06;;;;;;;0.50;0.50;;;8.90;99.90;;;;;;5079027;28;20869;-29
2021/01/30 09:29:40;;;;;;;0.40;0.40;;;9.00;99.90;;;;;;5080982;28;20696;-28
2021/01/30 09:32:08;;;;;;;0.40;0.40;;;9.20;99.90;;;;;;5079732;28;20910;-28
2021/01/30 09:34:46;;;;;;;0.40;0.40;;;9.40;99.90;;;;;;5080314;28;20436;-27
2021/01/30 09:37:29;;;;;;;0.40;0.40;;;9.50;99.90;;;;;;5081111;28;20558;-29
2021/01/30 09:39:56;;;;;;;0.40;0.40;;;9.60;99.90;;;;;;5079697;28;20929;-28
2021/01/30 09:42:24;;;;;;;0.50;0.50;;;9.80;99.90;;;;;;5079018;28;20612;-29
2021/01/30 09:45:03;;;;;;;0.40;0.40;;;9.90;99.90;;;;;;5077145;28;20588;-27
2021/01/30 09:47:30;;;;;;;0.40;0.40;;;10.00;99.90;;;;;;5078613;28;20781;-30
2021/01/30 09:50:00;;;;;;;0.43;0.43;;;10.10;99.90;;;;;;5076888;28;20440;-27
2021/01/30 09:52:27;;;;;;;0.50;0.50;;;10.10;99.90;;;;;;5079528;28;20682;-28
2021/01/30 09:54:56;;;;;;;0.50;0.50;;;9.90;99.90;;;;;;5077431;28;20447;-28
2021/01/30 09:57:25;;;;;;;0.50;0.50;;;9.90;99.90;;;;;;5058758;28;20440;-29
2021/01/30 09:59:56;;;;;;;0.40;0.40;;;10.00;99.90;;;;;;5079841;28;20471;-30
2021/01/30 10:02:25;;;;;;;0.50;0.50;;;10.40;99.90;;;;;;5084139;28;20439;-28
2021/01/30 10:05:08;;;;;;;0.40;0.40;;;10.30;99.90;;;;;;5080502;28;20777;-28
2021/01/30 10:07:35;;;;;;;0.40;0.40;;;10.40;99.90;;;;;;5076098;28;20930;-29
2021/01/30 10:10:20;;;;;;;2.50;2.40;;;10.40;99.90;;;;;;5078394;28;20991;-27
2021/01/30 10:12:47;;;;;;;0.50;0.50;;;10.40;99.90;;;;;;5078494;28;20444;-29
2021/01/30 10:15:25;;;;;;;0.50;0.50;;;10.20;99.90;;;;;;5079436;28;20459;-26
2021/01/30 10:17:53;;;;;;;0.50;0.50;;;10.10;99.90;;;;;;5078100;28;20895;-28
2021/01/30 10:20:23;;;;;;;0.40;0.40;;;10.10;99.90;;;;;;5089120;28;20466;-27
2021/01/30 10:22:56;;;;;;;0.50;0.50;;;10.20;99.90;;;;;;5104219;28;20443;-28
2021/01/30 10:25:27;;;;;;;0.50;0.50;;;10.30;99.90;;;;;;5102088;28;20424;-28
2021/01/30 10:28:04;;;;;;;0.53;0.53;;;10.30;99.90;;;;;;5097700;28;20446;-29
2021/01/30 10:30:31;;;;;;;0.57;0.57;;;10.20;99.90;;;;;;5098292;28;20812;-31
2021/01/30 10:33:09;;;;;;;0.60;0.60;;;10.00;99.90;;;;;;5097624;28;20474;-29
2021/01/30 10:35:43;;;;;;;0.60;0.60;;;10.10;99.90;;;;;;5098444;28;20439;-28
2021/01/30 10:38:12;;;;;;;1.43;1.43;;;10.30;99.90;;;;;;5096418;28;20494;-30
2021/01/30 10:40:42;;;;;;;0.60;0.60;;;10.50;99.90;;;;;;5097891;28;20669;-29
2021/01/30 10:43:16;;;;;;;0.50;0.50;;;10.50;99.90;;;;;;5097018;28;20658;-30
2021/01/30 10:45:45;;;;;;;0.50;0.50;;;10.50;99.90;;;;;;5097026;28;20455;-29
2021/01/30 10:48:15;;;;;;;0.50;0.50;;;10.60;99.90;;;;;;5098449;28;20875;-28
2021/01/30 10:50:45;;;;;;;0.60;0.60;;;10.80;99.90;;;;;;5096901;28;20502;-28
2021/01/30 10:53:32;;;;;;;0.60;0.60;;;10.80;99.90;;;;;;5078250;28;20920;-28
2021/01/30 10:55:59;;;;;;;0.60;0.60;;;10.70;99.90;;;;;;5077633;28;20516;-29
2021/01/30 10:58:32;;;;;;;0.60;0.60;;;10.50;99.90;;;;;;5080590;28;20440;-29
2021/01/30 11:01:02;;;;;;;0.60;0.60;;;10.60;99.90;;;;;;5079994;28;20467;-29
2021/01/30 11:03:42;;;;;;;0.60;0.60;;;10.70;99.90;;;;;;5082428;28;20772;-26
2021/01/30 11:06:15;;;;;;;0.50;0.50;;;10.60;99.90;;;;;;5079674;28;20680;-26
2021/01/30 11:08:42;;;;;;;0.60;0.60;;;10.70;99.90;;;;;;5080391;28;20452;-26
2021/01/30 11:11:12;;;;;;;0.50;0.50;;;10.70;99.90;;;;;;5077727;28;20432;-28
2021/01/30 11:13:45;;;;;;;0.50;0.50;;;11.00;99.90;;;;;;5079141;28;20428;-30
2021/01/30 11:16:15;;;;;;;0.50;0.50;;;11.40;99.90;;;;;;5079333;28;20794;-29
2021/01/30 11:18:47;;;;;;;0.70;0.70;;;11.40;99.90;;;;;;5080616;28;20452;-29
2021/01/30 11:21:28;;;;;;;0.70;0.70;;;11.40;99.90;;;;;;5078151;28;20967;-28
2021/01/30 11:23:55;;;;;;;0.70;0.70;;;11.40;99.90;;;;;;5076919;28;20474;-31
2021/01/30 11:26:38;;;;;;;0.70;0.70;;;11.30;99.90;;;;;;5078575;28;20880;-28
2021/01/30 11:29:28;;;;;;;7.63;3.60;;;11.30;99.90;;;;;;5077613;28;20475;-29
2021/01/30 11:31:56;;;;;;;0.80;0.80;;;11.40;99.90;;;;;;5077451;28;20454;-31
2021/01/30 11:34:24;;;;;;;0.93;0.93;;;11.50;99.90;;;;;;5077444;28;20476;-28
2021/01/30 11:36:51;;;;;;;0.80;0.80;;;11.50;99.90;;;;;;5077111;28;20461;-28
2021/01/30 11:39:25;;;;;;;0.70;0.70;;;11.30;99.90;;;;;;5075308;28;20493;-29
2021/01/30 11:41:51;;;;;;;0.80;0.80;;;11.00;99.90;;;;;;5077724;28;20474;-28
2021/01/30 11:44:18;;;;;;;0.70;0.70;;;10.90;99.90;;;;;;5076577;28;20663;-29
2021/01/30 11:46:45;;;;;;;0.70;0.70;;;10.70;99.90;;;;;;5075943;28;20751;-29
2021/01/30 11:49:12;;;;;;;0.60;0.60;;;10.80;99.90;;;;;;5078681;28;20459;-28
2021/01/30 11:51:39;;;;;;;0.60;0.60;;;10.90;99.90;;;;;;5081838;28;20513;-28
2021/01/30 11:54:06;;;;;;;0.67;0.67;;;10.80;99.90;;;;;;5081828;28;20457;-28
2021/01/30 11:56:33;;;;;;;0.50;0.50;;;10.50;99.90;;;;;;5081150;28;20499;-29
2021/01/30 11:59:00;;;;;;;0.50;0.50;;;10.40;99.90;;;;;;5079411;28;20758;-29
2021/01/30 12:01:27;;;;;;;0.50;0.50;;;10.30;99.90;;;;;;5081535;28;20452;-28
2021/01/30 12:03:53;;;;;;;0.50;0.50;;;10.20;99.90;;;;;;5081317;28;20440;-29
2021/01/30 12:06:20;;;;;;;0.60;0.60;;;10.20;99.90;;;;;;5083109;28;20750;-30
2021/01/30 12:08:48;;;;;;;0.50;0.50;;;10.30;99.90;;;;;;5081171;28;20970;-28
2021/01/30 12:11:15;;;;;;;0.50;0.50;;;10.30;99.90;;;;;;5081743;28;20823;-29
2021/01/30 12:13:42;;;;;;;0.50;0.50;;;10.50;99.90;;;;;;5080054;28;20490;-28
2021/01/30 12:16:09;;;;;;;0.60;0.60;;;10.70;99.90;;;;;;5064238;28;20444;-29
2021/01/30 12:18:35;;;;;;;0.60;0.60;;;10.90;99.90;;;;;;5083910;28;20484;-29
2021/01/30 12:21:03;;;;;;;0.50;0.50;;;11.00;99.90;;;;;;5099494;28;21203;-29
2021/01/30 12:23:33;;;;;;;0.80;0.80;;;10.80;99.90;;;;;;5102376;28;21032;-29
2021/01/30 12:26:02;;;;;;;0.50;0.50;;;10.70;99.90;;;;;;5101406;28;20639;-29
2021/01/30 12:28:32;;;;;;;0.57;0.57;;;10.80;99.90;;;;;;5101675;28;20674;-29
2021/01/30 12:30:59;;;;;;;0.57;0.57;;;11.00;99.90;;;;;;5081276;28;20803;-29
2021/01/30 12:33:26;;;;;;;0.50;0.50;;;11.20;99.90;;;;;;5102187;28;20461;-28
2021/01/30 12:35:53;;;;;;;0.50;0.50;;;11.20;99.90;;;;;;5100485;28;20559;-29
2021/01/30 12:38:21;;;;;;;0.60;0.60;;;11.20;99.90;;;;;;5101579;28;20959;-27
2021/01/30 12:40:50;;;;;;;0.60;0.60;;;11.10;99.90;;;;;;5099109;28;20494;-29
2021/01/30 12:43:21;;;;;;;0.60;0.60;;;11.10;99.90;;;;;;5101337;28;20455;-30
2021/01/30 12:45:48;;;;;;;0.60;0.60;;;11.20;99.90;;;;;;5102987;28;20495;-32
2021/01/30 12:48:16;;;;;;;0.60;0.60;;;11.30;99.90;;;;;;5100770;28;20427;-31
2021/01/30 12:50:43;;;;;;;0.60;0.60;;;11.40;99.90;;;;;;5101282;28;20451;-30
2021/01/30 12:53:10;;;;;;;0.70;0.70;;;11.50;99.90;;;;;;5100110;28;20449;-28
2021/01/30 12:55:39;;;;;;;0.70;0.70;;;11.40;99.90;;;;;;5102507;28;20906;-29
2021/01/30 12:58:17;;;;;;;0.60;0.60;;;11.20;99.90;;;;;;5101679;28;20498;-29
2021/01/30 13:00:47;;;;;;;2.40;2.30;;;11.10;99.90;;;;;;5097733;28;20474;-27
2021/01/30 13:03:14;;;;;;;0.60;0.60;;;11.10;99.90;;;;;;5099739;28;20726;-31
2021/01/30 13:05:41;;;;;;;0.60;0.60;;;11.20;99.90;;;;;;5100226;28;20439;-29
2021/01/30 13:08:08;;;;;;;0.70;0.70;;;11.20;99.90;;;;;;5098520;28;20449;-28
2021/01/30 13:10:35;;;;;;;0.70;0.70;;;11.00;99.90;;;;;;5099912;28;20721;-30
2021/01/30 13:13:03;;;;;;;0.60;0.60;;;10.90;99.90;;;;;;5102457;28;20766;-31
2021/01/30 13:15:30;;;;;;;0.60;0.60;;;10.70;99.90;;;;;;5082246;28;20789;-30
2021/01/30 13:17:58;;;;;;;0.50;0.50;;;10.70;99.90;;;;;;5082478;28;20502;-28
2021/01/30 13:20:37;;;;;;;0.50;0.50;;;10.50;99.90;;;;;;5100905;28;20573;-28
2021/01/30 13:23:04;;;;;;;0.50;0.50;;;10.40;99.90;;;;;;5066445;28;20450;-29
2021/01/30 13:25:31;;;;;;;0.50;0.50;;;10.30;99.90;;;;;;5101530;28;20450;-29